PWSweather.com
Personal Weather Stations
Station Observations
WAREHAM1
West Wareham, MA 02576

West Wareham, MA 02576

Lat: 41.7961059, Lon: -70.775612

Elevation: 88

Station Type: Davis Vantage Vue

http://www.gateway2capecod.com

Latest ConditionsUpdated 11:32:39 AM EDT Friday, Mar 27, 2015
Currently Today's Max Today's Min Today's Average
Temperature 41.0°F5.0°C 46.9°F8.3°C 39.4°F4.1°C 41.4°F5.2°C
Dew Point 39.9°F4.4°C 45.9°F7.7°C 38.7°F3.7°C 40.6°F4.8°C
Winds 2.0 mph NNW3.2 kmh NNW 2.0 mph NW3.2 kmh NW - 1.0 mph 1.6 kmh
Wind Gusts 4.0 mph6.4 kmh 8.9 mph14.3 kmh - -
Humidity 96% 97% 96% 97%
Pressure 29.72 in1006.4 mb 29.74 in1007.1 mb 29.63 in1003.4 mb -
Precipitation - 0.25 in6.4 mm - -
Hour Temp Dew Point Humidity Winds Wind Gusts Pressure Precip Precip Rate Daily Precip Total
11:32 AM 41.0°F5.0°C 39.9°F4.4°C 96% 2.0 mph NNW3.2 kmh NNW 4.0 mph6.4 kmh 29.72 in1006.4 mb 0.00 in0.0 mm 0.00 in0.0 mm 0.25 in6.4 mm
11:22 AM 41.0°F5.0°C 39.9°F4.4°C 96% 0.9 mph NNE1.4 kmh NNE 6.0 mph9.7 kmh 29.72 in1006.4 mb 0.00 in0.0 mm 0.00 in0.0 mm 0.25 in6.4 mm
11:12 AM 40.8°F4.9°C 39.7°F4.3°C 96% 0.9 mph W1.4 kmh W 4.9 mph7.9 kmh 29.72 in1006.4 mb 0.00 in0.0 mm 0.00 in0.0 mm 0.25 in6.4 mm
11:02 AM 40.6°F4.8°C 39.6°F4.2°C 96% 0.9 mph N1.4 kmh N 2.9 mph4.7 kmh 29.72 in1006.4 mb 0.00 in0.0 mm 0.00 in0.0 mm 0.25 in6.4 mm
10:52 AM 40.6°F4.8°C 39.6°F4.2°C 96% 0.9 mph NW1.4 kmh NW 6.0 mph9.7 kmh 29.74 in1007.1 mb 0.00 in0.0 mm 0.00 in0.0 mm 0.25 in6.4 mm
10:42 AM 40.6°F4.8°C 39.6°F4.2°C 96% 2.0 mph NE3.2 kmh NE 4.9 mph7.9 kmh 29.72 in1006.4 mb 0.00 in0.0 mm 0.00 in0.0 mm 0.25 in6.4 mm
10:32 AM 40.3°F4.6°C 39.2°F4.0°C 96% 2.0 mph NE3.2 kmh NE 4.9 mph7.9 kmh 29.73 in1006.8 mb 0.00 in0.0 mm 0.00 in0.0 mm 0.25 in6.4 mm
10:22 AM 40.5°F4.7°C 39.4°F4.1°C 96% 2.0 mph N3.2 kmh N 7.0 mph11.3 kmh 29.72 in1006.4 mb 0.01 in0.3 mm 0.00 in0.0 mm 0.25 in6.4 mm
10:12 AM 40.5°F4.7°C 39.7°F4.3°C 97% 0.9 mph N1.4 kmh N 4.9 mph7.9 kmh 29.72 in1006.4 mb 0.01 in0.3 mm 0.00 in0.0 mm 0.25 in6.4 mm
10:02 AM 40.3°F4.6°C 39.6°F4.2°C 97% 0.9 mph NE1.4 kmh NE 4.0 mph6.4 kmh 29.71 in1006.1 mb 0.01 in0.3 mm 0.00 in0.0 mm 0.25 in6.4 mm
09:52 AM 40.3°F4.6°C 39.6°F4.2°C 97% 0.9 mph NE1.4 kmh NE 4.9 mph7.9 kmh 29.72 in1006.4 mb 0.01 in0.3 mm 0.00 in0.0 mm 0.25 in6.4 mm
09:42 AM 40.1°F4.5°C 39.4°F4.1°C 97% 0.9 mph ENE1.4 kmh ENE 5.0 mph8.0 kmh 29.71 in1006.1 mb 0.02 in0.5 mm 0.00 in0.0 mm 0.25 in6.4 mm
09:32 AM 39.9°F4.4°C 39.2°F4.0°C 97% 0.9 mph NNW1.4 kmh NNW 4.0 mph6.4 kmh 29.72 in1006.4 mb 0.02 in0.5 mm 0.06 in1.5 mm 0.25 in6.4 mm
09:22 AM 39.7°F4.3°C 39.0°F3.9°C 97% 0.9 mph ENE1.4 kmh ENE 4.0 mph6.4 kmh 29.72 in1006.4 mb 0.01 in0.3 mm 0.00 in0.0 mm 0.24 in6.1 mm
09:12 AM 39.7°F4.3°C 39.0°F3.9°C 97% 0.9 mph NW1.4 kmh NW 2.9 mph4.7 kmh 29.72 in1006.4 mb 0.02 in0.5 mm 0.00 in0.0 mm 0.24 in6.1 mm
09:02 AM 39.7°F4.3°C 39.0°F3.9°C 97% 0.9 mph NW1.4 kmh NW 6.0 mph9.7 kmh 29.73 in1006.8 mb 0.02 in0.5 mm 0.00 in0.0 mm 0.24 in6.1 mm
08:52 AM 39.6°F4.2°C 38.8°F3.8°C 97% 0.9 mph NW1.4 kmh NW 6.0 mph9.7 kmh 29.73 in1006.8 mb 0.02 in0.5 mm 0.00 in0.0 mm 0.24 in6.1 mm
08:42 AM 39.6°F4.2°C 38.8°F3.8°C 97% 0.9 mph N1.4 kmh N 4.0 mph6.4 kmh 29.72 in1006.4 mb 0.02 in0.5 mm 0.00 in0.0 mm 0.23 in5.8 mm
08:32 AM 39.7°F4.3°C 39.0°F3.9°C 97% 0.9 mph N1.4 kmh N 8.1 mph13.0 kmh 29.74 in1007.1 mb 0.03 in0.8 mm 0.00 in0.0 mm 0.23 in5.8 mm
08:22 AM 39.6°F4.2°C 38.8°F3.8°C 97% 0.9 mph NW1.4 kmh NW 5.0 mph8.0 kmh 29.72 in1006.4 mb 0.03 in0.8 mm 0.00 in0.0 mm 0.23 in5.8 mm
08:12 AM 39.6°F4.2°C 38.8°F3.8°C 97% 2.0 mph NW3.2 kmh NW 4.9 mph7.9 kmh 29.73 in1006.8 mb 0.04 in1.0 mm 0.00 in0.0 mm 0.22 in5.6 mm
08:02 AM 39.6°F4.2°C 38.8°F3.8°C 97% 0.9 mph W1.4 kmh W 2.9 mph4.7 kmh 29.73 in1006.8 mb 0.04 in1.0 mm 0.00 in0.0 mm 0.22 in5.6 mm
07:52 AM 39.4°F4.1°C 38.7°F3.7°C 97% 0.9 mph NW1.4 kmh NW 2.0 mph3.2 kmh 29.71 in1006.1 mb 0.05 in1.3 mm 0.00 in0.0 mm 0.22 in5.6 mm
07:42 AM 39.6°F4.2°C 38.8°F3.8°C 97% 0.9 mph NW1.4 kmh NW 4.0 mph6.4 kmh 29.72 in1006.4 mb 0.05 in1.3 mm 0.06 in1.5 mm 0.21 in5.3 mm
07:32 AM 39.6°F4.2°C 38.8°F3.8°C 97% 0.9 mph NW1.4 kmh NW 4.0 mph6.4 kmh 29.72 in1006.4 mb 0.04 in1.0 mm 0.00 in0.0 mm 0.20 in5.1 mm
07:22 AM 39.6°F4.2°C 38.8°F3.8°C 97% 0.9 mph NW1.4 kmh NW 4.0 mph6.4 kmh 29.72 in1006.4 mb 0.04 in1.0 mm 0.06 in1.5 mm 0.20 in5.1 mm
07:12 AM 39.6°F4.2°C 38.8°F3.8°C 97% 2.0 mph NW3.2 kmh NW 6.0 mph9.7 kmh 29.73 in1006.8 mb 0.03 in0.8 mm 0.00 in0.0 mm 0.18 in4.6 mm
07:02 AM 39.6°F4.2°C 38.8°F3.8°C 97% 0.9 mph NW1.4 kmh NW 2.9 mph4.7 kmh 29.71 in1006.1 mb 0.03 in0.8 mm 0.01 in0.3 mm 0.18 in4.6 mm
06:52 AM 39.6°F4.2°C 38.8°F3.8°C 97% 0.9 mph NNW1.4 kmh NNW 2.9 mph4.7 kmh 29.70 in1005.8 mb 0.02 in0.5 mm 0.00 in0.0 mm 0.17 in4.3 mm
06:42 AM 39.7°F4.3°C 39.0°F3.9°C 97% 0.9 mph NW1.4 kmh NW 4.9 mph7.9 kmh 29.70 in1005.8 mb 0.02 in0.5 mm 0.00 in0.0 mm 0.16 in4.1 mm
06:32 AM 39.7°F4.3°C 39.0°F3.9°C 97% 0.9 mph NW1.4 kmh NW 4.0 mph6.4 kmh 29.68 in1005.1 mb 0.02 in0.5 mm 0.06 in1.5 mm 0.16 in4.1 mm
06:22 AM 39.7°F4.3°C 39.0°F3.9°C 97% 0.9 mph NW1.4 kmh NW 4.0 mph6.4 kmh 29.67 in1004.7 mb 0.01 in0.3 mm 0.00 in0.0 mm 0.15 in3.8 mm
06:12 AM 39.9°F4.4°C 39.2°F4.0°C 97% 2.0 mph NW3.2 kmh NW 4.9 mph7.9 kmh 29.67 in1004.7 mb 0.01 in0.3 mm 0.00 in0.0 mm 0.15 in3.8 mm
06:02 AM 39.9°F4.4°C 39.2°F4.0°C 97% 0.9 mph W1.4 kmh W 4.0 mph6.4 kmh 29.65 in1004.1 mb 0.02 in0.5 mm 0.00 in0.0 mm 0.15 in3.8 mm
05:52 AM 39.9°F4.4°C 39.2°F4.0°C 97% 0.9 mph NE1.4 kmh NE 8.9 mph14.3 kmh 29.65 in1004.1 mb 0.02 in0.5 mm 0.00 in0.0 mm 0.15 in3.8 mm
05:42 AM 40.3°F4.6°C 39.6°F4.2°C 97% 0.9 mph WNW1.4 kmh WNW 5.0 mph8.0 kmh 29.65 in1004.1 mb 0.02 in0.5 mm 0.00 in0.0 mm 0.14 in3.6 mm
05:32 AM 40.5°F4.7°C 39.7°F4.3°C 97% 0.9 mph NNW1.4 kmh NNW 2.9 mph4.7 kmh 29.65 in1004.1 mb 0.03 in0.8 mm 0.00 in0.0 mm 0.14 in3.6 mm
05:22 AM 40.5°F4.7°C 39.7°F4.3°C 97% 0.9 mph NW1.4 kmh NW 5.0 mph8.0 kmh 29.65 in1004.1 mb 0.04 in1.0 mm 0.00 in0.0 mm 0.14 in3.6 mm
05:12 AM 40.5°F4.7°C 39.7°F4.3°C 97% 0.9 mph WNW1.4 kmh WNW 2.9 mph4.7 kmh 29.65 in1004.1 mb 0.04 in1.0 mm 0.06 in1.5 mm 0.14 in3.6 mm
05:02 AM 40.6°F4.8°C 39.9°F4.4°C 97% Calm Calm 4.9 mph7.9 kmh 29.64 in1003.7 mb 0.03 in0.8 mm 0.00 in0.0 mm 0.13 in3.3 mm
04:52 AM 40.8°F4.9°C 40.1°F4.5°C 97% 0.9 mph NNW1.4 kmh NNW 3.0 mph4.8 kmh 29.66 in1004.4 mb 0.04 in1.0 mm 0.06 in1.5 mm 0.13 in3.3 mm
04:42 AM 40.8°F4.9°C 40.1°F4.5°C 97% 0.9 mph WNW1.4 kmh WNW 2.9 mph4.7 kmh 29.67 in1004.7 mb 0.03 in0.8 mm 0.06 in1.5 mm 0.12 in3.0 mm
04:32 AM 40.8°F4.9°C 40.1°F4.5°C 97% 0.9 mph NW1.4 kmh NW 4.0 mph6.4 kmh 29.65 in1004.1 mb 0.02 in0.5 mm 0.06 in1.5 mm 0.11 in2.8 mm
04:22 AM 41.0°F5.0°C 40.3°F4.6°C 97% 0.9 mph N1.4 kmh N 2.9 mph4.7 kmh 29.64 in1003.7 mb 0.01 in0.3 mm 0.00 in0.0 mm 0.10 in2.5 mm
04:12 AM 41.2°F5.1°C 40.5°F4.7°C 97% 0.9 mph NW1.4 kmh NW 2.9 mph4.7 kmh 29.65 in1004.1 mb 0.01 in0.3 mm 0.00 in0.0 mm 0.10 in2.5 mm
04:02 AM 41.2°F5.1°C 40.5°F4.7°C 97% 0.9 mph N1.4 kmh N 3.0 mph4.8 kmh 29.64 in1003.7 mb 0.01 in0.3 mm 0.01 in0.3 mm 0.10 in2.5 mm
03:52 AM 41.5°F5.3°C 40.8°F4.9°C 97% Calm Calm 2.0 mph3.2 kmh 29.63 in1003.4 mb 0.00 in0.0 mm 0.00 in0.0 mm 0.09 in2.3 mm
03:42 AM 41.7°F5.4°C 41.0°F5.0°C 97% 0.9 mph NNW1.4 kmh NNW 4.9 mph7.9 kmh 29.63 in1003.4 mb 0.00 in0.0 mm 0.00 in0.0 mm 0.09 in2.3 mm
03:32 AM 41.9°F5.5°C 41.2°F5.1°C 97% 0.9 mph N1.4 kmh N 4.0 mph6.4 kmh 29.63 in1003.4 mb 0.00 in0.0 mm 0.00 in0.0 mm 0.09 in2.3 mm
03:22 AM 41.9°F5.5°C 41.2°F5.1°C 97% Calm Calm 2.0 mph3.2 kmh 29.63 in1003.4 mb 0.00 in0.0 mm 0.00 in0.0 mm 0.09 in2.3 mm
03:12 AM 42.1°F5.6°C 41.4°F5.2°C 97% 0.9 mph NW1.4 kmh NW 2.9 mph4.7 kmh 29.63 in1003.4 mb 0.00 in0.0 mm 0.00 in0.0 mm 0.09 in2.3 mm
03:02 AM 42.3°F5.7°C 41.5°F5.3°C 97% 0.9 mph NE1.4 kmh NE 4.0 mph6.4 kmh 29.63 in1003.4 mb 0.00 in0.0 mm 0.00 in0.0 mm 0.09 in2.3 mm
02:52 AM 42.4°F5.8°C 41.7°F5.4°C 97% 0.9 mph NE1.4 kmh NE 5.0 mph8.0 kmh 29.63 in1003.4 mb 0.00 in0.0 mm 0.00 in0.0 mm 0.09 in2.3 mm
02:42 AM 42.4°F5.8°C 41.7°F5.4°C 97% Calm Calm 2.0 mph3.2 kmh 29.63 in1003.4 mb 0.00 in0.0 mm 0.00 in0.0 mm 0.09 in2.3 mm
02:32 AM 42.8°F6.0°C 42.1°F5.6°C 97% 0.9 mph WSW1.4 kmh WSW 4.0 mph6.4 kmh 29.63 in1003.4 mb 0.00 in0.0 mm 0.00 in0.0 mm 0.09 in2.3 mm
02:22 AM 43.0°F6.1°C 42.3°F5.7°C 97% 0.9 mph NE1.4 kmh NE 4.0 mph6.4 kmh 29.63 in1003.4 mb 0.00 in0.0 mm 0.00 in0.0 mm 0.09 in2.3 mm
02:12 AM 43.2°F6.2°C 42.4°F5.8°C 97% 0.9 mph NE1.4 kmh NE 4.0 mph6.4 kmh 29.63 in1003.4 mb 0.00 in0.0 mm 0.00 in0.0 mm 0.09 in2.3 mm
02:02 AM 43.3°F6.3°C 42.6°F5.9°C 97% 0.9 mph NNE1.4 kmh NNE 8.1 mph13.0 kmh 29.63 in1003.4 mb 0.00 in0.0 mm 0.00 in0.0 mm 0.09 in2.3 mm
01:52 AM 43.5°F6.4°C 42.4°F5.8°C 96% 0.9 mph NE1.4 kmh NE 4.0 mph6.4 kmh 29.63 in1003.4 mb 0.00 in0.0 mm 0.00 in0.0 mm 0.09 in2.3 mm
01:42 AM 43.9°F6.6°C 42.8°F6.0°C 96% 2.0 mph NW3.2 kmh NW 8.9 mph14.3 kmh 29.63 in1003.4 mb 0.02 in0.5 mm 0.00 in0.0 mm 0.09 in2.3 mm
01:32 AM 44.2°F6.8°C 43.2°F6.2°C 96% 0.9 mph NNE1.4 kmh NNE 4.9 mph7.9 kmh 29.64 in1003.7 mb 0.03 in0.8 mm 0.00 in0.0 mm 0.09 in2.3 mm
01:22 AM 44.4°F6.9°C 43.3°F6.3°C 96% 0.9 mph ENE1.4 kmh ENE 4.9 mph7.9 kmh 29.65 in1004.1 mb 0.05 in1.3 mm 0.00 in0.0 mm 0.09 in2.3 mm
01:12 AM 45.0°F7.2°C 43.9°F6.6°C 96% 2.0 mph NE3.2 kmh NE 6.9 mph11.1 kmh 29.64 in1003.7 mb 0.07 in1.8 mm 0.00 in0.0 mm 0.09 in2.3 mm
01:02 AM 45.3°F7.4°C 44.6°F7.0°C 97% 0.9 mph WNW1.4 kmh WNW 2.9 mph4.7 kmh 29.64 in1003.7 mb 0.09 in2.3 mm 0.00 in0.0 mm 0.09 in2.3 mm
12:52 AM 45.5°F7.5°C 44.8°F7.1°C 97% Calm Calm 0.9 mph1.4 kmh 29.66 in1004.4 mb 0.11 in2.8 mm 0.06 in1.5 mm 0.09 in2.3 mm
12:42 AM 45.9°F7.7°C 45.1°F7.3°C 97% Calm Calm 2.9 mph4.7 kmh 29.65 in1004.1 mb 0.10 in2.5 mm 0.00 in0.0 mm 0.07 in1.8 mm
12:32 AM 46.0°F7.8°C 45.0°F7.2°C 96% 2.0 mph NW3.2 kmh NW 5.0 mph8.0 kmh 29.65 in1004.1 mb 0.12 in3.0 mm 0.00 in0.0 mm 0.06 in1.5 mm
12:22 AM 46.2°F7.9°C 45.1°F7.3°C 96% 0.9 mph NW1.4 kmh NW 4.0 mph6.4 kmh 29.65 in1004.1 mb 0.13 in3.3 mm 0.00 in0.0 mm 0.04 in1.0 mm
12:12 AM 46.6°F8.1°C 45.5°F7.5°C 96% 0.9 mph NW1.4 kmh NW 2.9 mph4.7 kmh 29.65 in1004.1 mb 0.18 in4.6 mm 0.00 in0.0 mm 0.02 in0.5 mm
12:02 AM 46.9°F8.3°C 45.9°F7.7°C 96% 2.0 mph NW3.2 kmh NW 4.0 mph6.4 kmh 29.65 in1004.1 mb 0.24 in6.1 mm 7.20 in182.9 mm 0.24 in6.1 mm